sensor_id;sensor_type;location;lat;lon;timestamp;pressure;altitude;pressure_sealevel;temperature;humidity
26635;BME280;14490;54.208;37.686;2022-08-20T00:01:02;99979.66;;;17.91;100.00
26635;BME280;14490;54.208;37.686;2022-08-20T00:03:33;99985.63;;;17.95;100.00
26635;BME280;14490;54.208;37.686;2022-08-20T00:06:04;99984.94;;;17.93;100.00
26635;BME280;14490;54.208;37.686;2022-08-20T00:08:33;99982.16;;;17.85;100.00
26635;BME280;14490;54.208;37.686;2022-08-20T00:11:03;99996.47;;;17.87;100.00
26635;BME280;14490;54.208;37.686;2022-08-20T00:13:37;99973.41;;;17.73;100.00
26635;BME280;14490;54.208;37.686;2022-08-20T00:16:07;99998.13;;;17.80;100.00
26635;BME280;14490;54.208;37.686;2022-08-20T00:18:35;99968.69;;;17.58;100.00
26635;BME280;14490;54.208;37.686;2022-08-20T00:21:06;100008.09;;;17.71;100.00
26635;BME280;14490;54.208;37.686;2022-08-20T00:23:36;99931.31;;;17.24;100.00
26635;BME280;14490;54.208;37.686;2022-08-20T00:26:05;99982.28;;;17.58;100.00
26635;BME280;14490;54.208;37.686;2022-08-20T00:28:36;99991.84;;;17.62;100.00
26635;BME280;14490;54.208;37.686;2022-08-20T00:31:07;99995.25;;;17.64;100.00
26635;BME280;14490;54.208;37.686;2022-08-20T00:33:37;99986.72;;;17.59;100.00
26635;BME280;14490;54.208;37.686;2022-08-20T00:36:05;100005.53;;;17.70;100.00
26635;BME280;14490;54.208;37.686;2022-08-20T00:38:36;100007.25;;;17.71;100.00
26635;BME280;14490;54.208;37.686;2022-08-20T00:41:13;100009.28;;;17.69;100.00
26635;BME280;14490;54.208;37.686;2022-08-20T00:43:46;100001.75;;;17.63;100.00
26635;BME280;14490;54.208;37.686;2022-08-20T00:46:18;100012.00;;;17.69;100.00
26635;BME280;14490;54.208;37.686;2022-08-20T00:48:53;99999.06;;;17.53;100.00
26635;BME280;14490;54.208;37.686;2022-08-20T00:51:28;100015.66;;;17.60;100.00
26635;BME280;14490;54.208;37.686;2022-08-20T00:54:02;100010.81;;;17.54;100.00
26635;BME280;14490;54.208;37.686;2022-08-20T00:56:32;100009.03;;;17.44;100.00
26635;BME280;14490;54.208;37.686;2022-08-20T00:59:03;99986.13;;;17.29;100.00
26635;BME280;14490;54.208;37.686;2022-08-20T01:01:36;100006.94;;;17.38;100.00
26635;BME280;14490;54.208;37.686;2022-08-20T01:04:03;99971.03;;;17.17;100.00
26635;BME280;14490;54.208;37.686;2022-08-20T01:06:31;99908.88;;;16.87;100.00
26635;BME280;14490;54.208;37.686;2022-08-20T01:08:59;100001.81;;;17.35;100.00
26635;BME280;14490;54.208;37.686;2022-08-20T01:11:27;99995.97;;;17.30;100.00
26635;BME280;14490;54.208;37.686;2022-08-20T01:13:57;99996.13;;;17.29;100.00
26635;BME280;14490;54.208;37.686;2022-08-20T01:16:29;99987.19;;;17.19;100.00
26635;BME280;14490;54.208;37.686;2022-08-20T01:18:59;100004.19;;;17.21;100.00
26635;BME280;14490;54.208;37.686;2022-08-20T01:21:27;99985.56;;;17.08;100.00
26635;BME280;14490;54.208;37.686;2022-08-20T01:24:02;100003.81;;;17.16;100.00
26635;BME280;14490;54.208;37.686;2022-08-20T01:26:37;100011.03;;;17.07;100.00
26635;BME280;14490;54.208;37.686;2022-08-20T01:29:08;100009.81;;;17.02;100.00
26635;BME280;14490;54.208;37.686;2022-08-20T01:31:38;99986.38;;;16.91;100.00
26635;BME280;14490;54.208;37.686;2022-08-20T01:34:09;99982.72;;;16.82;100.00
26635;BME280;14490;54.208;37.686;2022-08-20T01:36:41;99996.06;;;16.76;100.00
26635;BME280;14490;54.208;37.686;2022-08-20T01:39:12;100013.75;;;16.89;100.00
26635;BME280;14490;54.208;37.686;2022-08-20T01:41:52;100011.47;;;16.85;100.00
26635;BME280;14490;54.208;37.686;2022-08-20T01:44:24;100015.03;;;16.85;100.00
26635;BME280;14490;54.208;37.686;2022-08-20T01:46:52;99991.94;;;16.72;100.00
26635;BME280;14490;54.208;37.686;2022-08-20T01:49:24;99970.28;;;16.53;100.00
26635;BME280;14490;54.208;37.686;2022-08-20T01:51:55;100004.41;;;16.74;100.00
26635;BME280;14490;54.208;37.686;2022-08-20T01:54:24;100003.66;;;16.72;100.00
26635;BME280;14490;54.208;37.686;2022-08-20T01:56:56;100002.50;;;16.75;100.00
26635;BME280;14490;54.208;37.686;2022-08-20T01:59:27;100003.63;;;16.82;100.00
26635;BME280;14490;54.208;37.686;2022-08-20T02:01:55;99969.97;;;16.65;100.00
26635;BME280;14490;54.208;37.686;2022-08-20T02:04:24;99992.91;;;16.80;100.00
26635;BME280;14490;54.208;37.686;2022-08-20T02:06:55;99964.25;;;16.68;100.00
26635;BME280;14490;54.208;37.686;2022-08-20T02:09:25;99985.06;;;16.77;100.00
26635;BME280;14490;54.208;37.686;2022-08-20T02:11:55;99988.34;;;16.81;100.00
26635;BME280;14490;54.208;37.686;2022-08-20T02:14:23;99947.69;;;16.52;100.00
26635;BME280;14490;54.208;37.686;2022-08-20T02:16:52;99973.22;;;16.69;100.00
26635;BME280;14490;54.208;37.686;2022-08-20T02:19:26;99957.31;;;16.56;100.00
26635;BME280;14490;54.208;37.686;2022-08-20T02:21:59;99989.59;;;16.86;100.00
26635;BME280;14490;54.208;37.686;2022-08-20T02:24:30;99944.50;;;16.66;100.00
26635;BME280;14490;54.208;37.686;2022-08-20T02:27:01;99976.06;;;16.94;100.00
26635;BME280;14490;54.208;37.686;2022-08-20T02:29:29;99991.63;;;17.02;99.48
26635;BME280;14490;54.208;37.686;2022-08-20T02:31:56;99989.72;;;17.03;98.52
26635;BME280;14490;54.208;37.686;2022-08-20T02:34:24;99951.28;;;16.80;98.54
26635;BME280;14490;54.208;37.686;2022-08-20T02:36:51;99979.72;;;17.03;98.28
26635;BME280;14490;54.208;37.686;2022-08-20T02:39:19;99932.38;;;16.78;97.37
26635;BME280;14490;54.208;37.686;2022-08-20T02:41:47;99978.25;;;17.09;96.97
26635;BME280;14490;54.208;37.686;2022-08-20T02:44:16;99998.44;;;17.24;96.31
26635;BME280;14490;54.208;37.686;2022-08-20T02:46:45;99971.66;;;17.11;96.14
26635;BME280;14490;54.208;37.686;2022-08-20T02:49:14;99961.22;;;17.07;95.49
26635;BME280;14490;54.208;37.686;2022-08-20T02:51:43;99989.59;;;17.22;94.95
26635;BME280;14490;54.208;37.686;2022-08-20T02:54:11;99989.84;;;17.28;94.53
26635;BME280;14490;54.208;37.686;2022-08-20T02:56:40;99939.00;;;16.93;94.17
26635;BME280;14490;54.208;37.686;2022-08-20T02:59:08;99983.28;;;17.21;94.34
26635;BME280;14490;54.208;37.686;2022-08-20T03:01:37;99997.81;;;17.30;93.61
26635;BME280;14490;54.208;37.686;2022-08-20T03:04:05;99925.72;;;16.90;93.50
26635;BME280;14490;54.208;37.686;2022-08-20T03:06:32;100005.84;;;17.31;93.19
26635;BME280;14490;54.208;37.686;2022-08-20T03:09:00;99980.81;;;17.10;92.84
26635;BME280;14490;54.208;37.686;2022-08-20T03:11:30;100002.03;;;17.24;93.11
26635;BME280;14490;54.208;37.686;2022-08-20T03:13:58;100000.72;;;17.28;92.32
26635;BME280;14490;54.208;37.686;2022-08-20T03:16:25;99953.06;;;17.07;92.44
26635;BME280;14490;54.208;37.686;2022-08-20T03:18:54;100000.47;;;17.39;92.49
26635;BME280;14490;54.208;37.686;2022-08-20T03:21:22;99994.47;;;17.36;92.25
26635;BME280;14490;54.208;37.686;2022-08-20T03:23:49;99994.66;;;17.34;92.70
26635;BME280;14490;54.208;37.686;2022-08-20T03:26:17;99924.25;;;16.96;93.08
26635;BME280;14490;54.208;37.686;2022-08-20T03:28:44;99988.44;;;17.24;92.25
26635;BME280;14490;54.208;37.686;2022-08-20T03:31:12;99986.81;;;17.14;91.70
26635;BME280;14490;54.208;37.686;2022-08-20T03:33:40;99982.91;;;17.16;91.97
26635;BME280;14490;54.208;37.686;2022-08-20T03:36:10;99996.69;;;17.32;91.50
26635;BME280;14490;54.208;37.686;2022-08-20T03:38:37;99975.84;;;17.23;91.14
26635;BME280;14490;54.208;37.686;2022-08-20T03:41:05;100003.06;;;17.41;90.54
26635;BME280;14490;54.208;37.686;2022-08-20T03:43:33;99979.25;;;17.25;90.31
26635;BME280;14490;54.208;37.686;2022-08-20T03:46:02;99959.31;;;17.17;90.32
26635;BME280;14490;54.208;37.686;2022-08-20T03:48:30;100004.91;;;17.40;90.41
26635;BME280;14490;54.208;37.686;2022-08-20T03:50:57;100010.03;;;17.43;90.40
26635;BME280;14490;54.208;37.686;2022-08-20T03:53:28;99977.22;;;17.27;90.15
26635;BME280;14490;54.208;37.686;2022-08-20T03:55:57;100007.09;;;17.55;89.70
26635;BME280;14490;54.208;37.686;2022-08-20T03:58:28;99948.97;;;17.20;89.20
26635;BME280;14490;54.208;37.686;2022-08-20T04:00:56;100004.50;;;17.53;89.34
26635;BME280;14490;54.208;37.686;2022-08-20T04:03:24;99950.03;;;17.10;88.41
26635;BME280;14490;54.208;37.686;2022-08-20T04:05:53;99996.88;;;17.39;88.95
26635;BME280;14490;54.208;37.686;2022-08-20T04:08:24;99987.81;;;17.30;88.77
26635;BME280;14490;54.208;37.686;2022-08-20T04:10:55;99992.31;;;17.39;88.52
26635;BME280;14490;54.208;37.686;2022-08-20T04:13:25;99997.19;;;17.36;87.84
26635;BME280;14490;54.208;37.686;2022-08-20T04:15:53;99968.84;;;17.21;88.21
26635;BME280;14490;54.208;37.686;2022-08-20T04:18:23;99957.56;;;17.16;87.97
26635;BME280;14490;54.208;37.686;2022-08-20T04:20:52;99921.59;;;17.04;87.67
26635;BME280;14490;54.208;37.686;2022-08-20T04:23:21;99932.03;;;17.26;87.07
26635;BME280;14490;54.208;37.686;2022-08-20T04:25:49;99970.41;;;17.59;86.80
26635;BME280;14490;54.208;37.686;2022-08-20T04:28:21;99974.97;;;17.58;86.12
26635;BME280;14490;54.208;37.686;2022-08-20T04:30:52;99979.00;;;17.72;85.94
26635;BME280;14490;54.208;37.686;2022-08-20T04:33:20;99972.66;;;17.89;85.33
26635;BME280;14490;54.208;37.686;2022-08-20T04:35:49;99938.97;;;17.64;84.31
26635;BME280;14490;54.208;37.686;2022-08-20T04:38:18;99967.22;;;17.89;84.54
26635;BME280;14490;54.208;37.686;2022-08-20T04:40:47;99965.16;;;17.91;83.96
26635;BME280;14490;54.208;37.686;2022-08-20T04:43:28;99933.00;;;17.86;83.16
26635;BME280;14490;54.208;37.686;2022-08-20T04:45:59;100007.22;;;18.48;82.83
26635;BME280;14490;54.208;37.686;2022-08-20T04:48:28;100003.56;;;18.57;81.83
26635;BME280;14490;54.208;37.686;2022-08-20T04:50:56;99988.88;;;18.50;81.72
26635;BME280;14490;54.208;37.686;2022-08-20T04:53:25;100002.06;;;18.71;81.46
26635;BME280;14490;54.208;37.686;2022-08-20T04:55:57;99963.16;;;18.61;81.03
26635;BME280;14490;54.208;37.686;2022-08-20T04:58:29;99993.81;;;18.96;80.52
26635;BME280;14490;54.208;37.686;2022-08-20T05:00:59;99957.81;;;18.93;80.12
26635;BME280;14490;54.208;37.686;2022-08-20T05:03:29;99984.63;;;19.22;79.31
26635;BME280;14490;54.208;37.686;2022-08-20T05:05:57;99978.84;;;19.25;79.53
26635;BME280;14490;54.208;37.686;2022-08-20T05:08:27;99961.44;;;19.18;79.16
26635;BME280;14490;54.208;37.686;2022-08-20T05:10:55;99956.28;;;19.06;78.65
26635;BME280;14490;54.208;37.686;2022-08-20T05:13:24;99963.63;;;19.06;78.11
26635;BME280;14490;54.208;37.686;2022-08-20T05:15:54;99966.03;;;19.17;77.53
26635;BME280;14490;54.208;37.686;2022-08-20T05:18:26;99952.41;;;19.17;76.84
26635;BME280;14490;54.208;37.686;2022-08-20T05:20:58;99945.06;;;19.26;76.41
26635;BME280;14490;54.208;37.686;2022-08-20T05:23:31;99934.66;;;19.21;75.86
26635;BME280;14490;54.208;37.686;2022-08-20T05:26:00;99954.16;;;19.42;75.89
26635;BME280;14490;54.208;37.686;2022-08-20T05:28:33;99973.25;;;19.58;75.62
26635;BME280;14490;54.208;37.686;2022-08-20T05:31:05;99987.75;;;19.59;75.04
26635;BME280;14490;54.208;37.686;2022-08-20T05:33:36;99977.00;;;19.66;74.48
26635;BME280;14490;54.208;37.686;2022-08-20T05:36:05;99985.22;;;19.57;74.10
26635;BME280;14490;54.208;37.686;2022-08-20T05:38:34;99979.41;;;19.60;73.98
26635;BME280;14490;54.208;37.686;2022-08-20T05:41:03;100001.91;;;19.71;73.54
26635;BME280;14490;54.208;37.686;2022-08-20T05:43:31;100010.81;;;19.81;73.42
26635;BME280;14490;54.208;37.686;2022-08-20T05:45:59;99998.84;;;19.90;72.81
26635;BME280;14490;54.208;37.686;2022-08-20T05:48:28;99973.09;;;19.68;72.38
26635;BME280;14490;54.208;37.686;2022-08-20T05:51:00;100004.31;;;19.90;72.03
26635;BME280;14490;54.208;37.686;2022-08-20T05:53:27;100017.28;;;19.80;72.01
26635;BME280;14490;54.208;37.686;2022-08-20T05:55:55;99982.47;;;19.49;72.07
26635;BME280;14490;54.208;37.686;2022-08-20T05:58:25;100019.50;;;19.76;72.31
26635;BME280;14490;54.208;37.686;2022-08-20T06:00:53;99989.97;;;19.55;72.14
26635;BME280;14490;54.208;37.686;2022-08-20T06:03:22;100005.69;;;19.53;72.07
26635;BME280;14490;54.208;37.686;2022-08-20T06:06:08;100023.44;;;19.57;72.32
26635;BME280;14490;54.208;37.686;2022-08-20T06:08:36;100024.47;;;19.48;72.17
26635;BME280;14490;54.208;37.686;2022-08-20T06:11:04;99905.28;;;18.75;72.06
26635;BME280;14490;54.208;37.686;2022-08-20T06:13:32;99936.66;;;18.87;72.31
26635;BME280;14490;54.208;37.686;2022-08-20T06:16:01;100035.50;;;19.39;72.29
26635;BME280;14490;54.208;37.686;2022-08-20T06:18:29;100020.84;;;19.40;72.21
26635;BME280;14490;54.208;37.686;2022-08-20T06:20:56;100025.25;;;19.33;72.14
26635;BME280;14490;54.208;37.686;2022-08-20T06:23:26;99916.47;;;18.64;71.88
26635;BME280;14490;54.208;37.686;2022-08-20T06:25:53;99996.69;;;18.95;72.08
26635;BME280;14490;54.208;37.686;2022-08-20T06:28:21;100019.19;;;18.97;72.30
26635;BME280;14490;54.208;37.686;2022-08-20T06:30:49;100015.97;;;18.93;72.85
26635;BME280;14490;54.208;37.686;2022-08-20T06:33:17;100018.16;;;18.90;73.02
26635;BME280;14490;54.208;37.686;2022-08-20T06:35:45;100017.75;;;18.77;73.03
26635;BME280;14490;54.208;37.686;2022-08-20T06:38:14;100005.31;;;18.74;73.51
26635;BME280;14490;54.208;37.686;2022-08-20T06:40:43;100026.63;;;18.79;73.60
26635;BME280;14490;54.208;37.686;2022-08-20T06:43:10;100021.88;;;18.81;73.38
26635;BME280;14490;54.208;37.686;2022-08-20T06:45:39;100015.75;;;18.87;73.32
26635;BME280;14490;54.208;37.686;2022-08-20T06:48:09;100024.69;;;19.05;72.68
26635;BME280;14490;54.208;37.686;2022-08-20T06:50:42;99970.41;;;18.94;72.13
26635;BME280;14490;54.208;37.686;2022-08-20T06:53:14;100015.38;;;19.40;71.41
26635;BME280;14490;54.208;37.686;2022-08-20T06:55:47;99917.25;;;18.98;70.39
26635;BME280;14490;54.208;37.686;2022-08-20T06:58:16;100017.63;;;19.77;69.68
26635;BME280;14490;54.208;37.686;2022-08-20T07:00:47;100014.53;;;20.04;68.92
26635;BME280;14490;54.208;37.686;2022-08-20T07:03:15;100017.75;;;20.32;68.20
26635;BME280;14490;54.208;37.686;2022-08-20T07:05:44;100009.31;;;20.49;68.06
26635;BME280;14490;54.208;37.686;2022-08-20T07:08:13;99982.56;;;20.21;68.83
26635;BME280;14490;54.208;37.686;2022-08-20T07:10:44;99911.28;;;19.75;70.51
26635;BME280;14490;54.208;37.686;2022-08-20T07:13:13;99888.31;;;19.45;71.89
26635;BME280;14490;54.208;37.686;2022-08-20T07:15:42;99912.19;;;19.43;73.99
26635;BME280;14490;54.208;37.686;2022-08-20T07:18:11;100018.28;;;19.95;74.96
26635;BME280;14490;54.208;37.686;2022-08-20T07:20:40;100015.75;;;19.69;77.10
26635;BME280;14490;54.208;37.686;2022-08-20T07:23:08;100008.75;;;19.42;79.28
26635;BME280;14490;54.208;37.686;2022-08-20T07:25:38;99997.41;;;19.13;80.48
26635;BME280;14490;54.208;37.686;2022-08-20T07:28:11;99998.53;;;18.86;82.09
26635;BME280;14490;54.208;37.686;2022-08-20T07:30:41;100018.97;;;18.48;83.99
26635;BME280;14490;54.208;37.686;2022-08-20T07:33:27;99998.59;;;18.01;87.00
26635;BME280;14490;54.208;37.686;2022-08-20T07:35:55;100009.69;;;17.82;88.21
26635;BME280;14490;54.208;37.686;2022-08-20T07:38:24;100013.63;;;17.62;90.06
26635;BME280;14490;54.208;37.686;2022-08-20T07:40:56;99924.72;;;16.91;91.90
26635;BME280;14490;54.208;37.686;2022-08-20T07:43:27;99965.44;;;17.01;92.94
26635;BME280;14490;54.208;37.686;2022-08-20T07:45:56;100001.84;;;16.90;94.92
26635;BME280;14490;54.208;37.686;2022-08-20T07:48:26;99997.88;;;16.85;96.72
26635;BME280;14490;54.208;37.686;2022-08-20T07:50:55;100009.88;;;16.92;96.62
26635;BME280;14490;54.208;37.686;2022-08-20T07:53:24;100007.53;;;16.97;97.58
26635;BME280;14490;54.208;37.686;2022-08-20T07:55:52;99997.69;;;17.14;97.29
26635;BME280;14490;54.208;37.686;2022-08-20T07:58:20;100022.84;;;17.51;96.86
26635;BME280;14490;54.208;37.686;2022-08-20T08:00:50;100009.69;;;17.56;96.00
26635;BME280;14490;54.208;37.686;2022-08-20T08:03:18;99993.41;;;17.64;94.89
26635;BME280;14490;54.208;37.686;2022-08-20T08:05:48;100010.81;;;17.97;94.00
26635;BME280;14490;54.208;37.686;2022-08-20T08:08:21;99929.25;;;17.62;92.63
26635;BME280;14490;54.208;37.686;2022-08-20T08:10:54;99950.34;;;17.85;91.33
26635;BME280;14490;54.208;37.686;2022-08-20T08:13:25;99991.78;;;18.31;90.55
26635;BME280;14490;54.208;37.686;2022-08-20T08:15:56;99961.03;;;18.38;88.77
26635;BME280;14490;54.208;37.686;2022-08-20T08:18:34;99981.31;;;18.86;87.74
26635;BME280;14490;54.208;37.686;2022-08-20T08:21:04;100002.91;;;19.29;86.00
26635;BME280;14490;54.208;37.686;2022-08-20T08:23:32;99970.50;;;19.26;83.06
26635;BME280;14490;54.208;37.686;2022-08-20T08:26:00;99882.97;;;19.03;82.66
26635;BME280;14490;54.208;37.686;2022-08-20T08:28:28;99992.72;;;19.63;79.91
26635;BME280;14490;54.208;37.686;2022-08-20T08:30:58;99949.69;;;19.17;78.28
26635;BME280;14490;54.208;37.686;2022-08-20T08:33:29;99996.06;;;19.33;78.55
26635;BME280;14490;54.208;37.686;2022-08-20T08:35:59;99981.75;;;19.31;78.83
26635;BME280;14490;54.208;37.686;2022-08-20T08:38:29;99950.72;;;19.32;77.21
26635;BME280;14490;54.208;37.686;2022-08-20T08:41:04;99696.63;;;17.90;76.63
26635;BME280;14490;54.208;37.686;2022-08-20T08:43:37;99945.97;;;19.50;75.45
26635;BME280;14490;54.208;37.686;2022-08-20T08:46:10;99995.41;;;19.96;74.52
26635;BME280;14490;54.208;37.686;2022-08-20T08:48:41;99946.97;;;19.82;73.12
26635;BME280;14490;54.208;37.686;2022-08-20T08:51:15;99964.28;;;20.13;73.15
26635;BME280;14490;54.208;37.686;2022-08-20T08:53:46;99978.28;;;20.34;72.21
26635;BME280;14490;54.208;37.686;2022-08-20T08:56:19;99967.03;;;20.21;70.70
26635;BME280;14490;54.208;37.686;2022-08-20T08:58:50;99983.06;;;20.24;70.76
26635;BME280;14490;54.208;37.686;2022-08-20T09:01:22;99922.31;;;19.98;70.38
26635;BME280;14490;54.208;37.686;2022-08-20T09:03:51;99863.97;;;19.83;69.98
26635;BME280;14490;54.208;37.686;2022-08-20T09:06:20;99977.09;;;20.67;68.92
26635;BME280;14490;54.208;37.686;2022-08-20T09:08:52;99973.31;;;20.77;68.07
26635;BME280;14490;54.208;37.686;2022-08-20T09:11:23;99968.19;;;20.73;66.96
26635;BME280;14490;54.208;37.686;2022-08-20T09:13:51;99956.63;;;20.63;67.05
26635;BME280;14490;54.208;37.686;2022-08-20T09:16:22;99863.38;;;20.11;66.54
26635;BME280;14490;54.208;37.686;2022-08-20T09:18:51;99975.22;;;20.68;66.11
26635;BME280;14490;54.208;37.686;2022-08-20T09:21:19;99994.06;;;20.63;65.79
26635;BME280;14490;54.208;37.686;2022-08-20T09:23:47;99947.19;;;20.35;66.06
26635;BME280;14490;54.208;37.686;2022-08-20T09:26:14;99987.59;;;20.56;66.10
26635;BME280;14490;54.208;37.686;2022-08-20T09:28:42;99981.09;;;20.57;66.05
26635;BME280;14490;54.208;37.686;2022-08-20T09:31:10;99964.69;;;20.57;65.88
26635;BME280;14490;54.208;37.686;2022-08-20T09:33:39;99983.88;;;20.80;65.63
26635;BME280;14490;54.208;37.686;2022-08-20T09:36:07;99972.19;;;20.63;65.00
26635;BME280;14490;54.208;37.686;2022-08-20T09:38:35;99979.47;;;20.70;64.77
26635;BME280;14490;54.208;37.686;2022-08-20T09:41:02;99972.84;;;20.73;64.73
26635;BME280;14490;54.208;37.686;2022-08-20T09:43:30;99946.06;;;20.60;64.31
26635;BME280;14490;54.208;37.686;2022-08-20T09:45:58;99975.03;;;20.78;64.18
26635;BME280;14490;54.208;37.686;2022-08-20T09:48:25;99979.28;;;20.80;63.82
26635;BME280;14490;54.208;37.686;2022-08-20T09:50:55;99974.94;;;20.94;63.67
26635;BME280;14490;54.208;37.686;2022-08-20T09:53:22;99979.69;;;21.00;63.55
26635;BME280;14490;54.208;37.686;2022-08-20T09:55:51;99915.91;;;20.68;63.83
26635;BME280;14490;54.208;37.686;2022-08-20T09:58:23;99975.78;;;20.94;63.19
26635;BME280;14490;54.208;37.686;2022-08-20T10:00:57;99975.16;;;20.84;63.26
26635;BME280;14490;54.208;37.686;2022-08-20T10:03:26;99965.44;;;20.73;63.18
26635;BME280;14490;54.208;37.686;2022-08-20T10:05:55;99972.47;;;20.76;63.21
26635;BME280;14490;54.208;37.686;2022-08-20T10:08:24;99950.44;;;20.69;63.41
26635;BME280;14490;54.208;37.686;2022-08-20T10:10:52;99992.25;;;20.86;63.35
26635;BME280;14490;54.208;37.686;2022-08-20T10:13:20;99986.97;;;20.85;63.01
26635;BME280;14490;54.208;37.686;2022-08-20T10:15:48;99929.00;;;20.50;62.82
26635;BME280;14490;54.208;37.686;2022-08-20T10:18:16;99954.97;;;20.46;61.76
26635;BME280;14490;54.208;37.686;2022-08-20T10:20:43;99980.56;;;20.61;62.08
26635;BME280;14490;54.208;37.686;2022-08-20T10:23:13;99952.28;;;20.38;61.87
26635;BME280;14490;54.208;37.686;2022-08-20T10:25:41;99985.06;;;20.54;61.95
26635;BME280;14490;54.208;37.686;2022-08-20T10:28:09;99978.88;;;20.52;62.14
26635;BME280;14490;54.208;37.686;2022-08-20T10:30:37;99985.16;;;20.69;62.26
26635;BME280;14490;54.208;37.686;2022-08-20T10:33:05;99934.81;;;20.47;62.15
26635;BME280;14490;54.208;37.686;2022-08-20T10:35:33;99887.19;;;20.34;62.20
26635;BME280;14490;54.208;37.686;2022-08-20T10:38:01;99955.00;;;20.85;61.80
26635;BME280;14490;54.208;37.686;2022-08-20T10:40:31;99972.88;;;20.96;61.23
26635;BME280;14490;54.208;37.686;2022-08-20T10:42:59;99910.22;;;20.47;60.62
26635;BME280;14490;54.208;37.686;2022-08-20T10:45:27;99932.75;;;20.57;60.58
26635;BME280;14490;54.208;37.686;2022-08-20T10:47:58;99968.47;;;20.87;60.38
26635;BME280;14490;54.208;37.686;2022-08-20T10:50:26;99957.81;;;20.92;60.05
26635;BME280;14490;54.208;37.686;2022-08-20T10:52:54;99906.63;;;20.78;59.76
26635;BME280;14490;54.208;37.686;2022-08-20T10:55:22;99953.34;;;20.99;59.43
26635;BME280;14490;54.208;37.686;2022-08-20T10:57:51;99910.66;;;20.90;59.13
26635;BME280;14490;54.208;37.686;2022-08-20T11:00:18;99952.34;;;21.22;58.84
26635;BME280;14490;54.208;37.686;2022-08-20T11:02:47;99962.41;;;21.30;58.50
26635;BME280;14490;54.208;37.686;2022-08-20T11:05:15;99927.22;;;21.19;58.19
26635;BME280;14490;54.208;37.686;2022-08-20T11:07:43;99958.78;;;21.52;57.44
26635;BME280;14490;54.208;37.686;2022-08-20T11:10:11;99950.88;;;21.57;56.95
26635;BME280;14490;54.208;37.686;2022-08-20T11:12:39;99844.81;;;21.14;56.73
26635;BME280;14490;54.208;37.686;2022-08-20T11:15:09;99926.75;;;21.75;56.66
26635;BME280;14490;54.208;37.686;2022-08-20T11:17:40;99936.03;;;21.89;56.61
26635;BME280;14490;54.208;37.686;2022-08-20T11:20:09;99897.69;;;21.89;56.34
26635;BME280;14490;54.208;37.686;2022-08-20T11:22:38;99941.19;;;22.36;56.24
26635;BME280;14490;54.208;37.686;2022-08-20T11:25:06;99941.75;;;22.46;55.76
26635;BME280;14490;54.208;37.686;2022-08-20T11:27:37;99893.72;;;22.21;55.29
26635;BME280;14490;54.208;37.686;2022-08-20T11:30:11;99925.38;;;22.38;54.78
26635;BME280;14490;54.208;37.686;2022-08-20T11:32:40;99941.03;;;22.59;54.57
26635;BME280;14490;54.208;37.686;2022-08-20T11:35:09;99928.00;;;22.61;54.25
26635;BME280;14490;54.208;37.686;2022-08-20T11:37:37;99919.09;;;22.59;53.98
26635;BME280;14490;54.208;37.686;2022-08-20T11:40:06;99912.91;;;22.36;53.44
26635;BME280;14490;54.208;37.686;2022-08-20T11:42:36;99901.47;;;22.32;53.75
26635;BME280;14490;54.208;37.686;2022-08-20T11:45:05;99821.50;;;21.99;53.73
26635;BME280;14490;54.208;37.686;2022-08-20T11:47:36;99926.50;;;22.73;54.05
26635;BME280;14490;54.208;37.686;2022-08-20T11:50:07;99915.13;;;22.76;53.79
26635;BME280;14490;54.208;37.686;2022-08-20T11:52:36;99900.09;;;22.57;53.70
26635;BME280;14490;54.208;37.686;2022-08-20T11:55:06;99922.25;;;22.70;53.28
26635;BME280;14490;54.208;37.686;2022-08-20T11:57:39;99892.38;;;22.46;53.41
26635;BME280;14490;54.208;37.686;2022-08-20T12:00:13;99897.75;;;22.54;53.59
26635;BME280;14490;54.208;37.686;2022-08-20T12:02:43;99894.22;;;22.60;53.70
26635;BME280;14490;54.208;37.686;2022-08-20T12:05:12;99882.88;;;22.63;53.52
26635;BME280;14490;54.208;37.686;2022-08-20T12:07:40;99884.34;;;22.80;53.43
26635;BME280;14490;54.208;37.686;2022-08-20T12:10:09;99774.25;;;22.12;53.26
26635;BME280;14490;54.208;37.686;2022-08-20T12:12:39;99693.94;;;21.67;53.21
26635;BME280;14490;54.208;37.686;2022-08-20T12:15:10;99794.84;;;22.44;52.95
26635;BME280;14490;54.208;37.686;2022-08-20T12:17:39;99889.16;;;23.14;52.86
26635;BME280;14490;54.208;37.686;2022-08-20T12:20:11;99850.91;;;23.13;52.92
26635;BME280;14490;54.208;37.686;2022-08-20T12:22:40;99885.50;;;23.50;52.71
26635;BME280;14490;54.208;37.686;2022-08-20T12:25:08;99875.22;;;23.58;52.12
26635;BME280;14490;54.208;37.686;2022-08-20T12:27:37;99855.72;;;23.53;52.14
26635;BME280;14490;54.208;37.686;2022-08-20T12:30:07;99877.69;;;23.81;52.00
26635;BME280;14490;54.208;37.686;2022-08-20T12:32:38;99828.09;;;23.61;51.73
26635;BME280;14490;54.208;37.686;2022-08-20T12:35:08;99843.84;;;23.80;51.43
26635;BME280;14490;54.208;37.686;2022-08-20T12:37:36;99874.06;;;24.08;51.38
26635;BME280;14490;54.208;37.686;2022-08-20T12:40:07;99874.06;;;24.08;51.37
26635;BME280;14490;54.208;37.686;2022-08-20T12:42:37;99845.16;;;23.84;51.84
26635;BME280;14490;54.208;37.686;2022-08-20T12:45:06;99868.78;;;24.07;51.88
26635;BME280;14490;54.208;37.686;2022-08-20T12:47:37;99842.63;;;23.89;51.63
26635;BME280;14490;54.208;37.686;2022-08-20T12:50:08;99872.06;;;23.95;51.51
26635;BME280;14490;54.208;37.686;2022-08-20T12:52:38;99864.91;;;23.94;51.80
26635;BME280;14490;54.208;37.686;2022-08-20T12:55:10;99817.97;;;23.68;51.64
26635;BME280;14490;54.208;37.686;2022-08-20T12:57:41;99868.50;;;23.95;51.64